Candido Sales, Brazil
Current Conditions -  °F | °C
As of 5:00 AM on Friday 19 Dec 2014 (Local Time) from SBQV Reporting Station
Broken Clouds Broken Clouds  
Wind Chill: 68°   Ceiling: 500
Heat Index: 68°   Visibility: 6mi
Dew Point: 68°   Wind: 12mph
Humidity: 100%   Direction: 20°NNE
Pressure: 29.97"   Gusts: NA
Location:  15.51°S, 41.24°W
Report Text: SBQV 190800Z 02010KT 9999 BKN005 SCT070 20/20 Q1015
Loading
Personal Weather Stations






























Interactive Weather Map New forecast layout! Learn more

10-Day Weather Forecast

Advertisements
Track Severe Weather on mobile